Time;durP1;ratioP1;P1;durP2;ratioP2;P2;SDS_P1;SDS_P2;PMS_P1;PMS_P2;Temp;Humidity;BMP_temperature;BMP_pressure;BME280_temperature;BME280_humidity;BME280_pressure;Samples;Min_cycle;Max_cycle;Signal;HPM_P1;HPM_P2
2023/09/15 00:00:20;;;;;;;14.55;14.05;;;;;;;-141.02;100.00;39681.34;5136869;27;20193;-57
2023/09/15 00:02:48;;;;;;;14.70;14.20;;;;;;;-141.02;100.00;39700.53;5136833;27;20268;-57
2023/09/15 00:05:15;;;;;;;14.40;13.90;;;;;;;-141.02;100.00;39712.03;5136580;27;20690;-57
2023/09/15 00:07:42;;;;;;;14.45;13.95;;;;;;;-141.02;100.00;39675.59;5136693;27;20219;-57
2023/09/15 00:10:11;;;;;;;14.55;14.05;;;;;;;-141.02;100.00;39662.16;5136763;27;20310;-57
2023/09/15 00:12:42;;;;;;;13.95;13.55;;;;;;;-141.02;100.00;39664.09;5136299;27;20640;-57
2023/09/15 00:15:10;;;;;;;14.55;14.05;;;;;;;-141.02;100.00;39658.34;5136578;27;20192;-57
2023/09/15 00:17:38;;;;;;;14.25;13.85;;;;;;;-141.02;100.00;39702.44;5136458;27;20259;-57
2023/09/15 00:20:13;;;;;;;14.07;13.68;;;;;;;-141.02;100.00;39623.81;5136516;27;20197;-57
2023/09/15 00:22:41;;;;;;;14.02;13.63;;;;;;;-141.02;100.00;39643.00;5136418;27;20207;-57
2023/09/15 00:25:09;;;;;;;14.20;13.80;;;;;;;-141.02;100.00;39656.41;5119149;27;20219;-66
2023/09/15 00:27:36;;;;;;;14.23;13.82;;;;;;;-141.02;100.00;39673.69;5115795;28;20236;-57
2023/09/15 00:30:08;;;;;;;14.90;14.40;;;;;;;-141.02;100.00;39685.19;5115688;28;20235;-57
2023/09/15 00:32:35;;;;;;;15.10;14.60;;;;;;;-141.02;100.00;39702.44;5115699;28;20555;-57
2023/09/15 00:35:03;;;;;;;15.10;14.60;;;;;;;-141.02;100.00;39658.34;5115562;28;20196;-57
2023/09/15 00:37:30;;;;;;;15.02;14.52;;;;;;;-141.02;100.00;39692.84;5115192;28;20224;-57
2023/09/15 00:39:57;;;;;;;14.52;14.02;;;;;;;-141.02;100.00;39694.78;5115249;28;20189;-57
2023/09/15 00:42:24;;;;;;;15.18;14.68;;;;;;;-141.02;100.00;39715.88;5114364;28;20205;-57
2023/09/15 00:48:14;;;;;;;14.85;14.35;;;;;;;-141.02;100.00;39643.00;5115368;28;20231;-57
2023/09/15 00:50:42;;;;;;;14.07;13.68;;;;;;;-141.02;100.00;39646.81;5115343;28;20209;-57
2023/09/15 00:53:14;;;;;;;14.18;13.77;;;;;;;-141.02;100.00;39619.97;5115168;28;20747;-57
2023/09/15 00:55:42;;;;;;;13.07;12.68;;;;;;;-141.02;100.00;39593.13;5114964;28;20192;-57
2023/09/15 00:58:12;;;;;;;13.10;12.70;;;;;;;-141.02;100.00;39581.63;5114877;28;20312;-57
2023/09/15 01:00:42;;;;;;;13.07;12.68;;;;;;;-141.02;100.00;39562.44;5115056;28;20232;-57
2023/09/15 01:03:11;;;;;;;12.65;12.25;;;;;;;-141.02;100.00;39524.09;5115090;28;20186;-57
2023/09/15 01:05:41;;;;;;;12.50;12.10;;;;;;;-141.02;100.00;39510.66;5112479;28;20229;-57
2023/09/15 01:08:08;;;;;;;12.07;11.68;;;;;;;-141.02;100.00;39483.81;5115041;28;20235;-56
2023/09/15 01:10:35;;;;;;;12.57;12.18;;;;;;;-141.02;100.00;39522.16;5115191;28;20196;-57
2023/09/15 01:13:02;;;;;;;13.75;13.35;;;;;;;-141.02;100.00;39537.50;5114677;28;20424;-57
2023/09/15 01:15:34;;;;;;;13.70;13.30;;;;;;;-141.02;100.00;39512.56;5114864;28;20197;-57
2023/09/15 01:18:10;;;;;;;13.52;13.13;;;;;;;-141.02;100.00;39541.34;5114788;28;20209;-56
2023/09/15 01:21:09;;;;;;;13.40;13.00;;;;;;;-141.02;100.00;39516.41;5114512;28;20185;-57
2023/09/15 01:23:55;;;;;;;13.95;13.55;;;;;;;-141.02;100.00;39491.47;5088950;28;20189;-56
2023/09/15 01:26:54;;;;;;;13.85;13.45;;;;;;;-141.02;100.00;39489.56;5114708;28;20182;-57
2023/09/15 01:29:46;;;;;;;13.35;12.95;;;;;;;-141.02;100.00;39439.69;5093215;27;20193;-57
2023/09/15 01:32:15;;;;;;;13.05;12.65;;;;;;;-141.02;100.00;39458.88;5099974;27;20193;-57
2023/09/15 01:34:48;;;;;;;13.00;12.60;;;;;;;-141.02;100.00;39355.31;5114488;28;20583;-57
2023/09/15 01:37:15;;;;;;;13.40;13.00;;;;;;;-141.02;100.00;39330.38;5114116;28;20238;-66
2023/09/15 01:39:42;;;;;;;12.38;11.98;;;;;;;-141.02;100.00;39272.84;5114353;28;20205;-57
2023/09/15 01:42:10;;;;;;;12.80;12.40;;;;;;;-141.02;100.00;39244.09;5114301;28;20724;-57
2023/09/15 01:44:37;;;;;;;11.98;11.68;;;;;;;-141.02;100.00;39217.25;5114242;28;20189;-57
2023/09/15 01:47:08;;;;;;;12.43;12.02;;;;;;;-141.02;100.00;39121.34;5114190;28;20639;-57
2023/09/15 01:49:36;;;;;;;11.98;11.68;;;;;;;-141.02;100.00;39088.75;5113924;28;20232;-57
2023/09/15 01:52:04;;;;;;;11.43;11.13;;;;;;;-141.02;100.00;38943.03;5113811;28;20701;-57
2023/09/15 01:54:31;;;;;;;11.23;10.93;;;;;;;-141.02;100.00;38845.22;5113853;28;20189;-57
2023/09/15 01:56:58;;;;;;;10.90;10.60;;;;;;;-141.02;100.00;38875.91;5114075;28;20236;-57
2023/09/15 01:59:26;;;;;;;11.93;11.63;;;;;;;-141.02;100.00;38891.25;5113515;28;20720;-57
2023/09/15 02:01:53;;;;;;;11.75;11.45;;;;;;;-141.02;100.00;38952.59;5113670;28;20208;-57
2023/09/15 02:04:21;;;;;;;13.52;13.13;;;;;;;-141.02;100.00;38960.28;5114089;28;20227;-63
2023/09/15 02:06:48;;;;;;;13.10;12.70;;;;;;;-141.02;100.00;39019.72;5113516;28;20232;-57
2023/09/15 02:09:16;;;;;;;12.05;11.75;;;;;;;-141.02;100.00;38983.28;5113783;28;20201;-56
2023/09/15 02:11:43;;;;;;;13.18;12.77;;;;;;;-141.02;100.00;38975.63;5113750;28;20227;-57
2023/09/15 02:14:10;;;;;;;12.55;12.15;;;;;;;-141.02;100.00;38985.22;5113684;28;20193;-57
2023/09/15 02:16:37;;;;;;;11.88;11.57;;;;;;;-141.02;100.00;38987.13;5113706;27;20227;-57
2023/09/15 02:19:06;;;;;;;13.45;13.05;;;;;;;-141.02;100.00;38989.03;5113448;28;20622;-57
2023/09/15 02:21:34;;;;;;;13.70;13.30;;;;;;;-141.02;100.00;38977.53;5113222;28;20200;-57
2023/09/15 02:24:02;;;;;;;13.65;13.25;;;;;;;-141.02;100.00;39006.31;5113673;28;20208;-57
2023/09/15 02:26:29;;;;;;;13.15;12.75;;;;;;;-141.02;100.00;38987.13;5113517;28;20639;-57
2023/09/15 02:28:56;;;;;;;13.38;12.98;;;;;;;-141.02;100.00;38975.63;5113085;28;20195;-57
2023/09/15 02:31:23;;;;;;;12.85;12.45;;;;;;;-141.02;100.00;38998.63;5113080;28;20223;-57
2023/09/15 02:33:50;;;;;;;12.98;12.57;;;;;;;-141.02;100.00;38994.78;5113178;28;20236;-57
2023/09/15 02:36:17;;;;;;;13.00;12.60;;;;;;;-141.02;100.00;38967.94;5113519;28;20261;-57
2023/09/15 02:38:46;;;;;;;13.45;13.05;;;;;;;-141.02;100.00;38948.78;5113203;28;20263;-57
2023/09/15 02:41:13;;;;;;;12.45;12.05;;;;;;;-141.02;100.00;38872.06;5113478;28;20207;-57
2023/09/15 02:43:40;;;;;;;12.40;12.00;;;;;;;-141.02;100.00;38841.41;5113199;28;20661;-57
2023/09/15 02:46:07;;;;;;;11.90;11.60;;;;;;;-141.02;100.00;38768.53;5112796;28;20199;-57
2023/09/15 02:48:34;;;;;;;11.63;11.32;;;;;;;-141.02;100.00;38661.16;5112770;28;20203;-58
2023/09/15 02:51:02;;;;;;;11.60;11.30;;;;;;;-141.02;100.00;38638.16;5112712;28;20193;-57
2023/09/15 02:53:30;;;;;;;11.43;11.13;;;;;;;-141.02;100.00;38603.63;5112704;28;20192;-57
2023/09/15 02:55:59;;;;;;;11.65;11.35;;;;;;;-141.02;100.00;38594.06;5113019;28;20203;-57
2023/09/15 02:58:27;;;;;;;11.57;11.27;;;;;;;-141.02;100.00;38530.78;5112556;28;20712;-57
2023/09/15 03:00:54;;;;;;;11.18;10.88;;;;;;;-141.02;100.00;38480.94;5112917;28;20201;-57
2023/09/15 03:03:24;;;;;;;11.10;10.80;;;;;;;-141.02;100.00;38365.91;5112868;28;20199;-57
2023/09/15 03:05:52;;;;;;;11.23;10.93;;;;;;;-141.02;100.00;38323.72;5112281;28;20225;-57
2023/09/15 03:08:19;;;;;;;11.20;10.90;;;;;;;-141.02;100.00;38300.72;5112814;28;20304;-56
2023/09/15 03:10:47;;;;;;;11.27;10.98;;;;;;;-141.02;100.00;38258.53;5112468;28;20196;-57
2023/09/15 03:13:15;;;;;;;10.82;10.52;;;;;;;-141.02;100.00;38250.88;5112484;28;20262;-57
2023/09/15 03:15:43;;;;;;;11.10;10.80;;;;;;;-141.02;100.00;38266.19;5112367;28;20197;-57
2023/09/15 03:18:10;;;;;;;10.70;10.40;;;;;;;-141.02;100.00;38275.78;5112331;28;20647;-57
2023/09/15 03:20:40;;;;;;;10.40;10.10;;;;;;;-141.02;100.00;38308.38;5112634;28;20193;-57
2023/09/15 03:23:07;;;;;;;10.48;10.18;;;;;;;-141.02;100.00;38319.88;5112331;28;20682;-57
2023/09/15 03:25:34;;;;;;;10.32;10.02;;;;;;;-141.02;100.00;38352.47;5112361;28;20197;-57
2023/09/15 03:28:02;;;;;;;10.52;10.23;;;;;;;-141.02;100.00;38385.06;5112806;28;20287;-57
2023/09/15 03:30:30;;;;;;;10.18;9.88;;;;;;;-141.02;100.00;38436.84;5112620;28;20189;-57
2023/09/15 03:32:57;;;;;;;9.27;9.07;;;;;;;-141.02;100.00;38503.94;5112155;28;20283;-60
2023/09/15 03:35:24;;;;;;;10.57;10.27;;;;;;;-141.02;100.00;38519.28;5112215;28;20288;-57
2023/09/15 03:37:51;;;;;;;9.88;9.57;;;;;;;-141.02;100.00;38549.94;5113238;28;20284;-57
2023/09/15 03:40:18;;;;;;;8.40;8.20;;;;;;;-141.02;100.00;38590.22;5112125;28;20200;-58
2023/09/15 03:42:45;;;;;;;9.75;9.45;;;;;;;-141.02;100.00;38584.47;5112415;28;20272;-58
2023/09/15 03:45:12;;;;;;;10.30;10.00;;;;;;;-141.02;100.00;38615.13;5112061;28;20193;-57
2023/09/15 03:47:41;;;;;;;9.35;9.15;;;;;;;-141.02;100.00;38638.16;5112127;28;20612;-57
2023/09/15 03:50:09;;;;;;;8.98;8.77;;;;;;;-141.02;100.00;38634.31;5112083;28;20197;-57
2023/09/15 03:52:36;;;;;;;10.30;10.00;;;;;;;-141.02;100.00;38695.66;5112529;28;20214;-57
2023/09/15 03:55:03;;;;;;;9.63;9.32;;;;;;;-141.02;100.00;38764.69;5112056;28;20265;-57
2023/09/15 03:57:31;;;;;;;9.90;9.60;;;;;;;-141.02;100.00;38845.22;5112323;28;20276;-57
2023/09/15 03:59:58;;;;;;;10.20;9.90;;;;;;;-141.02;100.00;39075.34;5112744;28;20600;-57
2023/09/15 04:02:25;;;;;;;11.68;11.38;;;;;;;-141.02;100.00;39351.47;5112229;28;20204;-57
2023/09/15 04:04:53;;;;;;;11.00;10.70;;;;;;;-141.02;100.00;39673.69;5112127;28;20199;-58
2023/09/15 04:07:20;;;;;;;11.20;10.90;;;;;;;-141.02;100.00;40015.09;5112532;28;20185;-57
2023/09/15 04:09:47;;;;;;;10.45;10.15;;;;;;;-141.02;100.00;40310.50;5112164;28;20615;-57
2023/09/15 04:12:14;;;;;;;10.23;9.93;;;;;;;-141.02;100.00;40644.28;5111944;28;20285;-57
2023/09/15 04:14:41;;;;;;;9.60;9.30;;;;;;;-141.02;100.00;40550.28;5112151;28;20212;-57
2023/09/15 04:17:09;;;;;;;9.38;9.18;;;;;;;-141.02;100.00;41346.53;5113531;28;20197;-57
2023/09/15 04:19:36;;;;;;;9.20;9.00;;;;;;;-141.02;100.00;41668.94;5115904;28;20256;-57
2023/09/15 04:22:04;;;;;;;9.25;9.05;;;;;;;-141.02;100.00;41929.94;5115951;28;20280;-57
2023/09/15 04:24:31;;;;;;;9.00;8.80;;;;;;;-141.02;100.00;42071.97;5115579;28;20553;-57
2023/09/15 04:26:58;;;;;;;9.80;9.50;;;;;;;-141.02;100.00;42333.00;5115530;28;20193;-57
2023/09/15 04:29:25;;;;;;;9.90;9.60;;;;;;;-141.02;100.00;42440.50;5115553;28;20652;-57
2023/09/15 04:31:52;;;;;;;10.10;9.80;;;;;;;-141.02;100.00;42690.03;5115415;28;20199;-57
2023/09/15 04:34:19;;;;;;;9.73;9.43;;;;;;;-141.02;100.00;42741.88;5115722;28;20201;-57
2023/09/15 04:36:46;;;;;;;10.30;10.00;;;;;;;-141.02;100.00;42519.19;5115673;28;20283;-57
2023/09/15 04:39:15;;;;;;;8.35;8.15;;;;;;;-141.02;100.00;42260.06;5115546;28;20239;-57
2023/09/15 04:41:42;;;;;;;9.20;9.00;;;;;;;-141.02;100.00;41995.19;5115269;28;20200;-57
2023/09/15 04:44:10;;;;;;;10.48;10.18;;;;;;;-141.02;100.00;41941.44;5115434;28;20284;-57
2023/09/15 04:46:37;;;;;;;10.00;9.70;;;;;;;-141.02;100.00;41906.91;5115164;28;20661;-57
2023/09/15 04:49:04;;;;;;;10.32;10.02;;;;;;;-141.02;100.00;41734.19;5115422;28;20573;-57
2023/09/15 04:51:31;;;;;;;11.25;10.95;;;;;;;-141.02;100.00;41561.47;5115088;28;20197;-57
2023/09/15 04:53:58;;;;;;;10.70;10.40;;;;;;;-141.02;100.00;41515.41;5115314;28;20575;-57
2023/09/15 04:56:26;;;;;;;10.95;10.65;;;;;;;-141.02;100.00;41555.72;5114997;28;20775;-57
2023/09/15 04:58:53;;;;;;;11.40;11.10;;;;;;;-141.02;100.00;41607.53;5115220;28;20225;-57
2023/09/15 05:01:20;;;;;;;11.50;11.20;;;;;;;-141.02;100.00;41603.69;5114877;28;20199;-67
2023/09/15 05:03:47;;;;;;;12.40;12.00;;;;;;;-141.02;100.00;41411.78;5115064;28;20189;-58
2023/09/15 05:06:14;;;;;;;11.68;11.32;;;;;;;-141.02;100.00;41503.91;5115106;28;20264;-57
2023/09/15 05:08:41;;;;;;;12.00;11.60;;;;;;;-141.02;100.00;41615.19;5115082;28;20197;-57
2023/09/15 05:11:08;;;;;;;11.60;11.23;;;;;;;-141.02;100.00;41381.09;5115017;28;20279;-57
2023/09/15 05:13:36;;;;;;;11.98;11.57;;;;;;;-141.02;100.00;41244.84;5115003;28;20203;-58
2023/09/15 05:16:03;;;;;;;11.93;11.52;;;;;;;-141.02;100.00;41265.94;5114956;28;20199;-57
2023/09/15 05:18:31;;;;;;;12.02;11.63;;;;;;;-141.02;100.00;41233.31;5114809;27;20238;-57
2023/09/15 05:20:58;;;;;;;11.70;11.38;;;;;;;-141.02;100.00;41216.06;5115078;28;20622;-57
2023/09/15 05:23:25;;;;;;;12.10;11.70;;;;;;;-141.02;100.00;41039.53;5114513;28;20195;-57
2023/09/15 05:25:53;;;;;;;12.40;12.00;;;;;;;-141.02;100.00;41031.84;5114367;28;20197;-57
2023/09/15 05:28:21;;;;;;;12.60;12.20;;;;;;;-141.02;100.00;40815.03;5114011;28;20382;-57
2023/09/15 05:30:49;;;;;;;13.10;12.70;;;;;;;-141.02;100.00;40778.59;5114315;28;20677;-58
2023/09/15 05:33:17;;;;;;;12.75;12.35;;;;;;;-141.02;100.00;40797.78;5114878;28;20189;-57
2023/09/15 05:35:44;;;;;;;12.82;12.43;;;;;;;-141.02;100.00;40715.28;5114267;28;20193;-57
2023/09/15 05:38:10;;;;;;;12.90;12.50;;;;;;;-141.02;100.00;40602.09;5114206;28;20197;-57
2023/09/15 05:40:37;;;;;;;13.23;12.82;;;;;;;-141.02;100.00;40609.75;5114391;28;20225;-58
2023/09/15 05:43:04;;;;;;;13.02;12.63;;;;;;;-141.02;100.00;40719.13;5114364;28;20193;-58
2023/09/15 05:45:31;;;;;;;12.60;12.20;;;;;;;-141.02;100.00;40579.06;5114054;28;20204;-57
2023/09/15 05:47:59;;;;;;;12.20;11.80;;;;;;;-141.02;100.00;40663.47;5114292;28;20192;-57
2023/09/15 05:50:26;;;;;;;11.52;11.13;;;;;;;-141.02;100.00;40782.44;5114271;28;20197;-57
2023/09/15 05:52:53;;;;;;;11.80;11.40;;;;;;;-141.02;100.00;40811.22;5114140;28;20569;-57
2023/09/15 05:55:20;;;;;;;12.02;11.63;;;;;;;-141.02;100.00;40765.16;5114090;28;20199;-57
2023/09/15 05:57:47;;;;;;;12.75;12.35;;;;;;;-141.02;100.00;40759.41;5113833;28;20687;-57
2023/09/15 06:00:15;;;;;;;12.77;12.38;;;;;;;-141.02;100.00;40598.25;5113920;28;20228;-58
2023/09/15 06:02:43;;;;;;;12.88;12.48;;;;;;;-141.02;100.00;40663.47;5113754;28;20233;-57
2023/09/15 06:05:11;;;;;;;13.10;12.70;;;;;;;-141.02;100.00;40705.69;5113484;28;20204;-58
2023/09/15 06:07:38;;;;;;;13.75;13.25;;;;;;;-141.02;100.00;40751.72;5114141;28;20276;-58
2023/09/15 06:10:06;;;;;;;14.70;14.20;;;;;;;-141.02;100.00;40657.72;5113583;28;20193;-57
2023/09/15 06:12:33;;;;;;;14.88;14.27;;;;;;;-141.02;100.00;40734.47;5113453;28;20196;-57
2023/09/15 06:15:00;;;;;;;15.45;14.85;;;;;;;-141.02;100.00;40722.97;5113798;28;20199;-57
2023/09/15 06:17:28;;;;;;;14.55;14.05;;;;;;;-141.02;100.00;40686.50;5113729;28;20574;-58
2023/09/15 06:19:55;;;;;;;14.13;13.63;;;;;;;-141.02;100.00;40707.59;5113312;28;20632;-57
2023/09/15 06:22:24;;;;;;;14.90;14.40;;;;;;;-141.02;100.00;40650.06;5113693;28;20317;-57
2023/09/15 06:24:51;;;;;;;15.55;14.95;;;;;;;-141.02;100.00;40671.16;5113561;28;20189;-57
2023/09/15 06:27:18;;;;;;;15.52;14.93;;;;;;;-141.02;100.00;40594.41;5113224;27;20207;-57
2023/09/15 06:29:45;;;;;;;16.00;15.40;;;;;;;-141.02;100.00;40709.53;5113205;28;20564;-57
2023/09/15 06:32:12;;;;;;;16.42;15.82;;;;;;;-141.02;100.00;40734.47;5113099;28;20197;-57
2023/09/15 06:34:39;;;;;;;16.20;15.60;;;;;;;-141.02;100.00;40816.97;5113109;28;20197;-57
2023/09/15 06:37:06;;;;;;;16.38;15.77;;;;;;;-141.02;100.00;40734.47;5113589;28;20592;-57
2023/09/15 06:39:35;;;;;;;15.90;15.30;;;;;;;-141.02;100.00;40717.19;5112924;28;20228;-57
2023/09/15 06:42:04;;;;;;;16.33;15.73;;;;;;;-141.02;100.00;40682.66;5112962;28;20193;-57
2023/09/15 06:44:32;;;;;;;16.45;15.85;;;;;;;-141.02;100.00;40638.53;5113345;28;20632;-57
2023/09/15 06:46:58;;;;;;;16.85;16.25;;;;;;;-141.02;100.00;40786.28;5112834;28;20283;-58
2023/09/15 06:49:26;;;;;;;15.93;15.43;;;;;;;-141.02;100.00;40793.94;5112845;28;20676;-57
2023/09/15 06:51:53;;;;;;;15.02;14.52;;;;;;;-141.02;100.00;40859.19;5112803;28;20199;-57
2023/09/15 06:54:21;;;;;;;14.43;13.93;;;;;;;-141.02;100.00;41029.94;5113029;28;20200;-57
2023/09/15 06:56:51;;;;;;;14.98;14.48;;;;;;;-141.02;100.00;40962.78;5112785;28;20204;-58
2023/09/15 06:59:18;;;;;;;14.88;14.38;;;;;;;-141.02;100.00;40809.28;5112618;28;20614;-59
2023/09/15 07:01:45;;;;;;;16.58;15.98;;;;;;;-141.02;100.00;40882.19;5112978;28;20228;-57
2023/09/15 07:04:13;;;;;;;16.80;16.20;;;;;;;-141.02;100.00;40876.44;5112912;28;20281;-57
2023/09/15 07:06:40;;;;;;;16.90;16.30;;;;;;;-141.02;100.00;40905.22;5112591;28;20240;-57
2023/09/15 07:09:07;;;;;;;17.58;16.98;;;;;;;-141.02;100.00;40920.56;5112619;28;20201;-57
2023/09/15 07:11:34;;;;;;;17.88;17.17;;;;;;;-141.02;100.00;40932.09;5112734;28;20189;-57
2023/09/15 07:14:03;;;;;;;18.25;17.55;;;;;;;-141.02;98.85;40920.56;5112781;28;20199;-57
2023/09/15 07:16:30;;;;;;;19.33;18.52;;;;;;;-141.02;97.13;40935.91;5112439;28;20239;-57
2023/09/15 07:18:57;;;;;;;19.90;19.10;;;;;;;-141.02;96.34;41022.25;5112372;28;20195;-57
2023/09/15 07:21:24;;;;;;;19.67;18.88;;;;;;;-141.02;94.93;41043.38;5112718;28;20272;-57
2023/09/15 07:23:50;;;;;;;19.77;19.05;;;;;;;-141.02;94.57;41200.72;5112413;28;20239;-57
2023/09/15 07:26:17;;;;;;;19.05;18.35;;;;;;;-141.02;92.08;41361.91;5112364;28;20659;-57
2023/09/15 07:28:44;;;;;;;20.42;19.63;;;;;;;-141.02;87.97;41392.59;5112322;28;20235;-58
2023/09/15 07:31:15;;;;;;;20.70;19.90;;;;;;;-141.02;87.04;41384.91;5112648;28;20652;-58
2023/09/15 07:33:43;;;;;;;20.70;19.90;;;;;;;-141.02;85.04;41496.22;5112665;28;20181;-58
2023/09/15 07:36:11;;;;;;;21.20;20.30;;;;;;;-141.02;82.34;41688.13;5113153;28;20193;-66
2023/09/15 07:38:38;;;;;;;21.60;20.70;;;;;;;-141.02;77.52;41584.50;5112570;28;20205;-58
2023/09/15 07:41:05;;;;;;;21.35;20.45;;;;;;;-141.02;76.77;41538.44;5112109;28;20267;-58
2023/09/15 07:43:32;;;;;;;21.83;20.92;;;;;;;-141.02;80.02;41553.78;5112216;28;20225;-57
2023/09/15 07:45:59;;;;;;;21.98;20.98;;;;;;;-141.02;78.00;41542.28;5112129;28;20200;-57
2023/09/15 07:48:29;;;;;;;21.88;20.88;;;;;;;-141.02;79.17;41565.31;5112144;28;20734;-58
2023/09/15 07:50:56;;;;;;;21.88;20.88;;;;;;;-141.02;76.01;41622.88;5112487;28;20245;-58
2023/09/15 07:53:23;;;;;;;21.52;20.52;;;;;;;-141.02;77.34;41749.53;5116172;28;20209;-57
2023/09/15 07:55:50;;;;;;;21.55;20.55;;;;;;;-141.02;75.44;41751.44;5116201;28;20590;-58
2023/09/15 07:58:17;;;;;;;21.20;20.20;;;;;;;-141.02;74.04;41745.69;5116122;28;20193;-58
2023/09/15 08:00:44;;;;;;;21.25;20.25;;;;;;;-141.02;73.46;41868.53;5116299;28;20315;-58
2023/09/15 08:03:11;;;;;;;20.70;19.70;;;;;;;-141.02;73.56;41814.78;5116853;28;20193;-58
2023/09/15 08:05:39;;;;;;;21.00;20.00;;;;;;;-141.02;73.26;41999.03;5115776;28;20336;-58
2023/09/15 08:08:06;;;;;;;20.70;19.70;;;;;;;-141.02;71.61;41952.97;5116314;28;20246;-58
2023/09/15 08:10:33;;;;;;;20.67;19.58;;;;;;;-141.02;71.96;42010.53;5116185;28;20263;-58
2023/09/15 08:13:00;;;;;;;20.42;19.42;;;;;;;-141.02;72.93;41935.69;5116195;28;20199;-58
2023/09/15 08:15:27;;;;;;;20.27;19.17;;;;;;;-141.02;71.86;42014.38;5116678;28;20196;-58
2023/09/15 08:17:54;;;;;;;19.33;18.33;;;;;;;-141.02;72.43;41832.06;5115819;28;20240;-58
2023/09/15 08:20:22;;;;;;;19.25;18.25;;;;;;;-141.02;72.98;42068.13;5115659;28;20349;-58
2023/09/15 08:22:50;;;;;;;19.38;18.38;;;;;;;-141.02;69.54;41979.84;5115934;28;20197;-58
2023/09/15 08:25:17;;;;;;;21.55;20.35;;;;;;;-141.02;69.56;42033.56;5115986;28;20288;-58
2023/09/15 08:27:44;;;;;;;19.27;18.17;;;;;;;-141.02;69.62;41920.34;5115537;28;20572;-58
2023/09/15 08:30:12;;;;;;;18.20;17.30;;;;;;;-141.02;69.21;42025.91;5115544;28;20575;-67
2023/09/15 08:32:39;;;;;;;18.00;17.10;;;;;;;-141.02;68.95;42152.56;5115441;28;20703;-58
2023/09/15 08:35:06;;;;;;;18.27;17.38;;;;;;;-141.02;67.80;42083.47;5115738;28;20319;-58
2023/09/15 08:37:33;;;;;;;18.45;17.55;;;;;;;-141.02;67.24;41945.28;5115482;28;20311;-57
2023/09/15 08:40:02;;;;;;;18.05;17.15;;;;;;;-141.02;69.67;42183.28;5115245;28;20705;-58
2023/09/15 08:42:29;;;;;;;18.75;17.75;;;;;;;-141.02;68.70;42327.25;5115380;28;20197;-58
2023/09/15 08:44:58;;;;;;;18.65;17.65;;;;;;;-141.02;68.45;42075.81;5115238;28;20197;-58
2023/09/15 08:47:27;;;;;;;18.75;17.75;;;;;;;-141.02;67.75;41964.47;5115210;28;20197;-58
2023/09/15 08:49:55;;;;;;;18.60;17.60;;;;;;;-141.02;68.15;41983.69;5115179;27;20200;-58
2023/09/15 08:52:23;;;;;;;18.42;17.42;;;;;;;-141.02;66.29;42179.44;5115391;28;20196;-57
2023/09/15 08:54:52;;;;;;;18.42;17.42;;;;;;;-141.02;64.77;42248.53;5115327;28;20200;-58
2023/09/15 08:57:22;;;;;;;18.75;17.75;;;;;;;-141.02;63.84;42329.16;5115560;28;20232;-58
2023/09/15 08:59:51;;;;;;;18.50;17.50;;;;;;;-141.02;62.56;42365.63;5115171;28;20229;-58
2023/09/15 09:02:18;;;;;;;18.25;17.25;;;;;;;-141.02;64.27;42202.47;5115188;28;20201;-58
2023/09/15 09:04:45;;;;;;;18.27;17.27;;;;;;;-141.02;63.65;42217.84;5113996;28;20201;-58
2023/09/15 09:07:13;;;;;;;18.30;17.30;;;;;;;-141.02;62.82;42248.53;5114862;28;20247;-58
2023/09/15 09:09:41;;;;;;;18.45;17.45;;;;;;;-141.02;63.21;42194.81;5114761;28;20203;-58
2023/09/15 09:12:09;;;;;;;18.60;17.60;;;;;;;-141.02;61.92;42166.00;5114781;28;20709;-61
2023/09/15 09:14:37;;;;;;;18.40;17.40;;;;;;;-141.02;62.79;42229.34;5115184;28;20262;-58
2023/09/15 09:17:07;;;;;;;18.23;17.33;;;;;;;-141.02;61.01;42286.94;5114627;28;20585;-58
2023/09/15 09:19:37;;;;;;;17.88;17.08;;;;;;;-141.02;61.78;42363.72;5114785;28;20211;-58
2023/09/15 09:22:07;;;;;;;18.15;17.25;;;;;;;-141.02;62.47;42407.84;5114894;28;20201;-57
2023/09/15 09:24:34;;;;;;;18.75;17.75;;;;;;;-141.02;62.50;42379.06;5114831;28;20197;-57
2023/09/15 09:27:01;;;;;;;18.42;17.42;;;;;;;-141.02;65.64;42329.16;5114459;28;20283;-57
2023/09/15 09:29:28;;;;;;;18.73;17.73;;;;;;;-141.02;63.99;42311.88;5114412;28;20193;-57
2023/09/15 09:31:57;;;;;;;18.48;17.58;;;;;;;-141.02;62.30;42540.31;5114759;28;20201;-57
2023/09/15 09:34:25;;;;;;;18.35;17.35;;;;;;;-141.02;59.90;42592.13;5114361;28;20236;-57
2023/09/15 09:36:53;;;;;;;18.63;17.58;;;;;;;-141.02;59.83;42559.50;5114492;28;20681;-57
2023/09/15 09:39:20;;;;;;;18.30;17.30;;;;;;;-141.02;59.94;42655.47;5114257;28;20193;-57
2023/09/15 09:41:48;;;;;;;18.38;17.27;;;;;;;-141.02;61.30;42503.84;5114029;28;20234;-57
2023/09/15 09:44:15;;;;;;;18.00;17.00;;;;;;;-141.02;63.32;42482.72;5114349;28;20254;-57
2023/09/15 09:46:42;;;;;;;17.88;16.88;;;;;;;-141.02;63.93;42486.56;5114374;28;20200;-57
2023/09/15 09:49:11;;;;;;;17.92;16.92;;;;;;;-141.02;63.03;42555.66;5113976;28;20215;-65
2023/09/15 09:51:38;;;;;;;17.50;16.50;;;;;;;-141.02;63.20;42526.88;5114324;28;20200;-57
2023/09/15 09:54:08;;;;;;;17.45;16.55;;;;;;;-141.02;62.77;42428.97;5113866;28;20276;-58
2023/09/15 09:56:35;;;;;;;17.63;16.73;;;;;;;-141.02;63.19;42396.34;5114158;28;20203;-58
2023/09/15 09:59:10;;;;;;;17.10;16.20;;;;;;;-141.02;61.71;42428.97;5113818;27;20616;-58
2023/09/15 10:01:37;;;;;;;17.40;16.50;;;;;;;-141.02;61.14;42486.56;5114006;28;20221;-58
2023/09/15 10:04:05;;;;;;;17.17;16.27;;;;;;;-141.02;60.98;42402.09;5114010;28;20201;-59
2023/09/15 10:06:35;;;;;;;17.90;16.90;;;;;;;-141.02;61.51;42432.81;5113483;28;20767;-58
2023/09/15 10:09:05;;;;;;;17.38;16.48;;;;;;;-141.02;60.37;42463.53;5113655;28;20196;-58
2023/09/15 10:11:34;;;;;;;17.23;16.33;;;;;;;-141.02;59.91;42492.31;5113511;28;20725;-58
2023/09/15 10:14:03;;;;;;;17.25;16.35;;;;;;;-141.02;59.53;42532.63;5113815;28;20193;-58
2023/09/15 10:16:33;;;;;;;16.95;16.05;;;;;;;-141.02;59.85;42438.56;5113155;28;20193;-58
2023/09/15 10:19:03;;;;;;;16.85;15.95;;;;;;;-141.02;59.36;42411.69;5113420;28;20204;-58
2023/09/15 10:21:32;;;;;;;17.25;16.35;;;;;;;-141.02;58.29;42490.41;5113561;28;20308;-58
2023/09/15 10:24:06;;;;;;;16.75;15.95;;;;;;;-141.02;59.25;42432.81;5113349;28;20201;-58
2023/09/15 10:26:33;;;;;;;16.73;15.82;;;;;;;-141.02;59.87;42400.19;5113679;28;20185;-58
2023/09/15 10:29:01;;;;;;;17.05;16.15;;;;;;;-141.02;61.08;42336.84;5113241;28;20606;-57
2023/09/15 10:31:30;;;;;;;17.38;16.45;;;;;;;-141.02;61.07;42275.41;5113791;28;20208;-58
2023/09/15 10:34:01;;;;;;;17.63;16.63;;;;;;;-141.02;60.42;42321.47;5113179;28;20203;-58
2023/09/15 10:36:29;;;;;;;17.65;16.65;;;;;;;-141.02;60.64;42275.41;5113215;28;20192;-58
2023/09/15 10:38:57;;;;;;;17.73;16.73;;;;;;;-141.02;60.44;42382.91;5113357;28;20262;-58
2023/09/15 10:41:30;;;;;;;17.73;16.73;;;;;;;-141.02;61.31;42359.88;5113263;28;20224;-58
2023/09/15 10:43:57;;;;;;;17.20;16.30;;;;;;;-141.02;61.58;42296.53;5112957;28;20229;-58
2023/09/15 10:46:36;;;;;;;17.77;16.77;;;;;;;-141.02;60.89;42359.88;5112906;28;20195;-58
2023/09/15 10:49:14;;;;;;;17.73;16.73;;;;;;;-141.02;60.21;42367.56;5112919;28;20662;-58
2023/09/15 10:51:51;;;;;;;17.88;16.88;;;;;;;-141.02;60.51;42375.22;5113212;28;20567;-58
2023/09/15 10:54:19;;;;;;;17.55;16.55;;;;;;;-141.02;61.22;42375.22;5112789;28;20184;-58
2023/09/15 10:56:48;;;;;;;17.75;16.75;;;;;;;-141.02;61.29;42417.47;5112770;28;20205;-58
2023/09/15 10:59:16;;;;;;;17.60;16.70;;;;;;;-141.02;62.09;42371.38;5112676;28;20204;-58
2023/09/15 11:01:44;;;;;;;17.15;16.20;;;;;;;-141.02;62.68;42361.78;5112652;28;20230;-58
2023/09/15 11:04:17;;;;;;;17.15;16.23;;;;;;;-141.02;62.55;42317.66;5112592;28;20197;-58